createdAt,value
2022-11-05T00:02:26.106Z,101679.66
2022-11-05T00:05:11.904Z,101686.75
2022-11-05T00:08:04.899Z,101677.91
2022-11-05T00:10:55.866Z,101677.00
2022-11-05T00:13:41.491Z,101678.72
2022-11-05T00:16:27.110Z,101676.06
2022-11-05T00:19:29.240Z,101682.25
2022-11-05T00:22:14.674Z,101677.00
2022-11-05T00:25:07.599Z,101679.66
2022-11-05T00:27:54.915Z,101677.91
2022-11-05T00:30:45.695Z,101659.69
2022-11-05T00:33:32.624Z,101680.56
2022-11-05T00:36:19.579Z,101681.50
2022-11-05T00:39:06.424Z,101681.50
2022-11-05T00:41:53.347Z,101686.88
2022-11-05T00:44:38.938Z,101691.31
2022-11-05T00:47:24.665Z,101679.91
2022-11-05T00:50:11.640Z,101677.53
2022-11-05T00:53:17.373Z,101616.69
2022-11-05T00:56:05.643Z,101678.19
2022-11-05T00:58:52.718Z,101685.28
2022-11-05T01:01:39.827Z,101685.34
2022-11-05T01:04:27.169Z,101678.34
2022-11-05T01:07:15.054Z,101625.47
2022-11-05T01:10:02.026Z,101674.69
2022-11-05T01:12:50.450Z,101690.72
2022-11-05T01:15:38.420Z,101638.44
2022-11-05T01:18:26.001Z,101679.13
2022-11-05T01:21:13.049Z,101691.47
2022-11-05T01:24:00.172Z,101674.13
2022-11-05T01:26:47.278Z,101668.09
2022-11-05T01:29:34.146Z,101688.88
2022-11-05T01:32:21.279Z,101689.75
2022-11-05T01:35:08.251Z,101690.59
2022-11-05T01:37:55.289Z,101691.53
2022-11-05T01:40:44.722Z,101688.00
2022-11-05T01:43:37.542Z,101677.41
2022-11-05T01:46:24.494Z,101680.19
2022-11-05T01:49:13.959Z,101672.22
2022-11-05T01:52:02.029Z,101681.13
2022-11-05T01:54:53.099Z,101673.25
2022-11-05T01:57:40.643Z,101674.97
2022-11-05T02:00:28.100Z,101680.28
2022-11-05T02:03:15.034Z,101677.56
2022-11-05T02:06:02.366Z,101677.56
2022-11-05T02:09:17.008Z,101683.78
2022-11-05T02:12:03.966Z,101679.38
2022-11-05T02:14:50.909Z,101672.31
2022-11-05T02:18:19.766Z,101678.47
2022-11-05T02:21:36.484Z,101679.34
2022-11-05T02:24:47.150Z,101681.13
2022-11-05T02:28:31.282Z,101684.66
2022-11-05T02:31:38.064Z,101678.47
2022-11-05T02:34:39.854Z,101685.50
2022-11-05T02:37:51.352Z,101680.25
2022-11-05T02:40:56.262Z,101677.56
2022-11-05T02:43:56.866Z,101673.19
2022-11-05T02:46:54.197Z,101677.56
2022-11-05T02:50:19.338Z,101682.06
2022-11-05T02:53:21.046Z,101682.06
2022-11-05T02:56:36.806Z,101675.84
2022-11-05T02:59:23.691Z,101673.19
2022-11-05T03:02:12.645Z,101645.16
2022-11-05T03:04:59.723Z,101671.34
2022-11-05T03:07:46.584Z,101657.19
2022-11-05T03:10:36.141Z,101658.97
2022-11-05T03:13:33.311Z,101657.19
2022-11-05T03:16:37.985Z,101653.72
2022-11-05T03:19:48.356Z,101660.00
2022-11-05T03:22:43.614Z,101653.94
2022-11-05T03:25:37.705Z,101657.63
2022-11-05T03:28:28.564Z,101655.91
2022-11-05T03:31:16.796Z,101598.50
2022-11-05T03:34:05.533Z,101652.44
2022-11-05T03:36:57.463Z,101619.38
2022-11-05T03:39:52.839Z,101648.91
2022-11-05T03:42:44.859Z,101649.81
2022-11-05T03:45:39.022Z,101654.25
2022-11-05T03:48:30.218Z,101654.25
2022-11-05T03:51:22.574Z,101648.94
2022-11-05T03:54:14.601Z,101649.94
2022-11-05T03:57:20.248Z,101645.53
2022-11-05T04:00:09.486Z,101645.53
2022-11-05T04:02:58.645Z,101601.34
2022-11-05T04:05:45.714Z,101652.69
2022-11-05T04:08:39.083Z,101636.81
2022-11-05T04:11:26.289Z,101550.25
2022-11-05T04:14:13.202Z,101644.00
2022-11-05T04:16:58.554Z,101642.34
2022-11-05T04:19:44.204Z,101636.31
2022-11-05T04:22:29.744Z,101642.47
2022-11-05T04:25:16.781Z,101636.25
2022-11-05T04:28:04.420Z,101638.97
2022-11-05T04:30:51.326Z,101645.91
2022-11-05T04:33:38.408Z,101651.22
2022-11-05T04:36:25.618Z,101644.19
2022-11-05T04:39:12.680Z,101640.75
2022-11-05T04:41:59.582Z,101649.50
2022-11-05T04:44:46.560Z,101636.31
2022-11-05T04:47:33.345Z,101646.88
2022-11-05T04:50:20.320Z,101615.72
2022-11-05T04:53:07.217Z,101644.41
2022-11-05T04:55:54.203Z,101653.13
2022-11-05T04:58:41.476Z,101652.25
2022-11-05T05:01:40.154Z,101655.03
2022-11-05T05:04:27.131Z,101639.34
2022-11-05T05:07:14.343Z,101655.13
2022-11-05T05:10:01.393Z,101658.72
2022-11-05T05:12:48.340Z,101654.34
2022-11-05T05:15:35.343Z,101658.78
2022-11-05T05:18:22.213Z,101655.28
2022-11-05T05:21:07.637Z,101657.94
2022-11-05T05:23:54.606Z,101660.72
2022-11-05T05:26:41.665Z,101659.00
2022-11-05T05:29:29.599Z,101629.44
2022-11-05T05:32:16.374Z,101660.88
2022-11-05T05:35:03.323Z,101653.84
2022-11-05T05:37:50.152Z,101658.25
2022-11-05T05:40:37.153Z,101653.06
2022-11-05T05:43:24.034Z,101653.09
2022-11-05T05:46:11.287Z,101648.81
2022-11-05T05:48:58.259Z,101647.91
2022-11-05T05:51:45.253Z,101647.13
2022-11-05T05:54:34.266Z,101640.22
2022-11-05T05:57:24.132Z,101644.53
2022-11-05T06:00:11.122Z,101646.31
2022-11-05T06:03:01.727Z,101644.59
2022-11-05T06:05:48.722Z,101650.00
2022-11-05T06:08:35.770Z,101652.66
2022-11-05T06:11:24.076Z,101650.97
2022-11-05T06:14:11.148Z,101654.53
2022-11-05T06:16:58.622Z,101648.44
2022-11-05T06:19:45.461Z,101591.22
2022-11-05T06:22:32.375Z,101652.03
2022-11-05T06:25:19.226Z,101646.78
2022-11-05T06:28:06.163Z,101655.63
2022-11-05T06:30:53.088Z,101650.34
2022-11-05T06:33:40.025Z,101652.25
2022-11-05T06:36:28.375Z,101645.16
2022-11-05T06:39:15.370Z,101647.81
2022-11-05T06:42:18.045Z,101645.25
2022-11-05T06:45:05.873Z,101647.81
2022-11-05T06:47:52.856Z,101647.03
2022-11-05T06:50:40.002Z,101645.19
2022-11-05T06:53:26.778Z,101650.50
2022-11-05T06:56:13.813Z,101647.84
2022-11-05T06:59:00.690Z,101639.94
2022-11-05T07:01:47.987Z,101644.31
2022-11-05T07:04:23.094Z,101642.59
2022-11-05T07:07:09.999Z,101652.34
2022-11-05T07:09:57.182Z,101647.97
2022-11-05T07:12:44.257Z,101643.50
2022-11-05T07:15:32.430Z,101641.78
2022-11-05T07:18:20.596Z,101644.53
2022-11-05T07:21:07.545Z,101650.66
2022-11-05T07:23:54.399Z,101642.75
2022-11-05T07:26:41.214Z,101641.88
2022-11-05T07:29:28.148Z,101640.16
2022-11-05T07:32:15.043Z,101653.47
2022-11-05T07:35:02.003Z,101649.06
2022-11-05T07:37:49.030Z,101642.03
2022-11-05T07:40:40.474Z,101633.22
2022-11-05T07:43:28.254Z,101617.56
2022-11-05T07:46:15.175Z,101629.72
2022-11-05T07:49:02.365Z,101635.03
2022-11-05T07:51:49.369Z,101631.50
2022-11-05T07:54:36.207Z,101621.09
2022-11-05T07:57:23.169Z,101626.25
2022-11-05T08:00:10.000Z,101628.03
2022-11-05T08:03:04.011Z,101626.31
2022-11-05T08:05:56.701Z,101623.75
2022-11-05T08:08:43.705Z,101628.13
2022-11-05T08:11:31.603Z,101630.78
2022-11-05T08:14:18.612Z,101632.53
2022-11-05T08:17:05.403Z,101635.25
2022-11-05T08:19:52.323Z,101629.06
2022-11-05T08:22:39.133Z,101621.09
2022-11-05T08:25:26.554Z,101625.47
2022-11-05T08:28:18.296Z,101621.97
2022-11-05T08:31:08.816Z,101617.56
2022-11-05T08:34:01.304Z,101616.72
2022-11-05T08:36:49.238Z,101624.69
2022-11-05T08:39:36.236Z,101627.28
2022-11-05T08:42:23.215Z,101618.44
2022-11-05T08:45:09.991Z,101612.19
2022-11-05T08:47:57.122Z,101611.34
2022-11-05T08:50:43.982Z,101617.56
2022-11-05T08:53:31.394Z,101613.19
2022-11-05T08:56:19.114Z,101606.09
2022-11-05T08:59:07.839Z,101593.00
2022-11-05T09:01:54.890Z,101601.69
2022-11-05T09:04:42.090Z,101596.38
2022-11-05T09:07:29.418Z,101602.56
2022-11-05T09:10:16.261Z,101588.41
2022-11-05T09:13:03.495Z,101596.38
2022-11-05T09:15:50.866Z,101593.72
2022-11-05T09:18:39.305Z,101494.75
2022-11-05T09:21:26.153Z,101584.00
2022-11-05T09:24:13.771Z,101583.13
2022-11-05T09:27:00.563Z,101592.00
2022-11-05T09:29:47.957Z,101575.47
2022-11-05T09:32:34.880Z,101586.69
2022-11-05T09:35:21.795Z,101572.56
2022-11-05T09:38:08.623Z,101570.78
2022-11-05T09:41:11.223Z,101579.63
2022-11-05T09:44:03.461Z,101571.59
2022-11-05T09:47:01.123Z,101565.38
2022-11-05T09:49:53.693Z,101565.38
2022-11-05T09:52:45.118Z,101561.88
2022-11-05T09:55:41.899Z,101551.28
2022-11-05T09:58:40.836Z,101549.50
2022-11-05T10:01:34.409Z,101553.03
2022-11-05T10:04:27.851Z,101551.22
2022-11-05T10:07:27.434Z,101530.16
2022-11-05T10:10:22.106Z,101489.34
2022-11-05T10:13:17.031Z,101530.31
2022-11-05T10:16:28.117Z,101459.16
2022-11-05T10:19:43.829Z,101536.22
2022-11-05T10:22:34.601Z,101534.50
2022-11-05T10:25:21.573Z,101532.75
2022-11-05T10:28:14.657Z,101501.69
2022-11-05T10:31:02.516Z,101536.28
2022-11-05T10:34:05.167Z,101523.28
2022-11-05T10:36:55.895Z,101529.25
2022-11-05T10:39:44.549Z,101533.72
2022-11-05T10:43:11.345Z,101537.28
2022-11-05T10:46:18.502Z,101539.94
2022-11-05T10:49:20.298Z,101537.28
2022-11-05T10:52:13.923Z,101536.38
2022-11-05T10:55:01.347Z,101541.63
2022-11-05T10:57:50.567Z,101531.91
2022-11-05T11:00:40.513Z,101539.81
2022-11-05T11:03:54.734Z,101538.06
2022-11-05T11:06:50.612Z,101535.34
2022-11-05T11:09:44.158Z,101540.66
2022-11-05T11:12:39.767Z,101532.69
2022-11-05T11:15:41.238Z,101531.78
2022-11-05T11:18:47.621Z,101536.19
2022-11-05T11:21:39.726Z,101527.44
2022-11-05T11:24:40.812Z,101540.66
2022-11-05T11:27:35.459Z,101532.78
2022-11-05T11:30:25.342Z,101531.94
2022-11-05T11:33:12.623Z,101526.66
2022-11-05T11:36:06.440Z,101454.88
2022-11-05T11:38:55.476Z,101526.66
2022-11-05T11:41:47.246Z,101522.25
2022-11-05T11:44:43.830Z,101519.59
2022-11-05T11:47:35.471Z,101522.25
2022-11-05T11:50:22.669Z,101516.94
2022-11-05T11:53:09.746Z,101520.50
2022-11-05T11:55:56.939Z,101520.50
2022-11-05T11:58:55.595Z,101508.16
2022-11-05T12:02:01.150Z,101506.47
2022-11-05T12:05:00.982Z,101513.56
2022-11-05T12:07:47.724Z,101515.47
2022-11-05T12:10:56.171Z,101512.88
2022-11-05T12:13:43.145Z,101512.88
2022-11-05T12:16:48.366Z,101508.41
2022-11-05T12:19:51.325Z,101506.78
2022-11-05T12:23:08.358Z,101500.66
2022-11-05T12:26:19.979Z,101492.69
2022-11-05T12:29:40.667Z,101495.28
2022-11-05T12:32:55.298Z,101485.66
2022-11-05T12:36:01.346Z,101481.28
2022-11-05T12:39:00.006Z,101483.00
2022-11-05T12:42:12.926Z,101482.25
2022-11-05T12:45:24.443Z,101478.78
2022-11-05T12:48:36.769Z,101474.38
2022-11-05T12:51:33.026Z,101469.97
2022-11-05T12:54:31.858Z,101470.00
2022-11-05T12:57:22.866Z,101465.63
2022-11-05T13:00:16.740Z,101432.72
2022-11-05T13:03:12.703Z,101460.38
2022-11-05T13:06:07.815Z,101392.91
2022-11-05T13:09:00.410Z,101468.28
2022-11-05T13:11:54.804Z,101464.75
2022-11-05T13:14:53.577Z,101473.66
2022-11-05T13:17:44.698Z,101457.84
2022-11-05T13:20:39.331Z,101464.91
2022-11-05T13:23:39.954Z,101449.94
2022-11-05T13:27:04.210Z,101450.94
2022-11-05T13:30:12.841Z,101444.75
2022-11-05T13:33:05.218Z,101450.97
2022-11-05T13:36:02.958Z,101439.50
2022-11-05T13:38:51.037Z,101445.69
2022-11-05T13:41:53.373Z,101439.44
2022-11-05T13:44:42.812Z,101442.16
2022-11-05T13:48:00.501Z,101432.53
2022-11-05T13:51:09.029Z,101437.00
2022-11-05T13:54:11.766Z,101437.16
2022-11-05T13:57:24.663Z,101432.78
2022-11-05T14:00:14.221Z,101428.41
2022-11-05T14:03:12.646Z,101428.47
2022-11-05T14:06:02.394Z,101418.84
2022-11-05T14:08:53.569Z,101420.41
2022-11-05T14:11:51.416Z,101416.00
2022-11-05T14:14:42.690Z,101410.81
2022-11-05T14:17:29.526Z,101412.59
2022-11-05T14:20:25.364Z,101404.66
2022-11-05T14:23:12.918Z,101410.84
2022-11-05T14:26:12.226Z,101396.69
2022-11-05T14:29:04.293Z,101391.41
2022-11-05T14:32:11.020Z,101398.53
2022-11-05T14:35:02.708Z,101387.09
2022-11-05T14:38:22.702Z,101391.50
2022-11-05T14:41:18.163Z,101382.72
2022-11-05T14:44:20.946Z,101381.91
2022-11-05T14:47:10.562Z,101383.69
2022-11-05T14:50:08.909Z,101390.78
2022-11-05T14:52:58.744Z,101382.81
2022-11-05T14:55:56.279Z,101383.69
2022-11-05T14:58:55.221Z,101373.31
2022-11-05T15:01:54.620Z,101382.94
2022-11-05T15:04:50.032Z,101372.31
2022-11-05T15:07:53.674Z,101377.69
2022-11-05T15:10:43.111Z,101337.78
2022-11-05T15:13:56.396Z,101358.47
2022-11-05T15:16:46.315Z,101361.88
2022-11-05T15:19:50.803Z,101361.94
2022-11-05T15:22:52.810Z,101358.34
2022-11-05T15:25:52.882Z,101353.94
2022-11-05T15:28:52.515Z,101356.53
2022-11-05T15:31:56.714Z,101353.88
2022-11-05T15:34:50.177Z,101350.34
2022-11-05T15:37:37.009Z,101353.94
2022-11-05T15:40:41.318Z,101336.31
2022-11-05T15:43:36.523Z,101341.63
2022-11-05T15:46:42.167Z,101318.88
2022-11-05T15:49:30.118Z,101314.28
2022-11-05T15:52:17.241Z,101321.41
2022-11-05T15:55:04.888Z,101323.22
2022-11-05T15:57:51.912Z,101324.16
2022-11-05T16:00:46.187Z,101317.94
2022-11-05T16:03:52.504Z,101304.69
2022-11-05T16:06:39.705Z,101304.69
2022-11-05T16:09:27.039Z,101297.59
2022-11-05T16:12:42.595Z,101298.53
2022-11-05T16:15:29.479Z,101290.59
2022-11-05T16:18:19.042Z,101293.25
2022-11-05T16:21:32.562Z,101284.38
2022-11-05T16:24:23.055Z,101280.84
2022-11-05T16:27:21.298Z,101268.72
2022-11-05T16:30:12.581Z,101278.19
2022-11-05T16:32:59.458Z,101280.00
2022-11-05T16:35:46.479Z,101278.19
2022-11-05T16:38:33.495Z,101267.59
2022-11-05T16:41:20.563Z,101273.75
2022-11-05T16:44:13.491Z,101256.97
2022-11-05T16:47:03.535Z,101246.72
2022-11-05T16:49:50.455Z,101257.91
2022-11-05T16:52:37.645Z,101250.84
2022-11-05T16:55:24.742Z,101254.34
2022-11-05T16:58:14.519Z,101254.34
2022-11-05T17:01:01.694Z,101254.34
2022-11-05T17:03:48.787Z,101251.69
2022-11-05T17:06:37.847Z,101191.88
2022-11-05T17:09:24.929Z,101244.66
2022-11-05T17:12:11.776Z,101242.88
2022-11-05T17:14:58.915Z,101243.72
2022-11-05T17:17:45.838Z,101239.19
2022-11-05T17:20:52.868Z,101235.69
2022-11-05T17:23:42.502Z,101242.66
2022-11-05T17:26:32.135Z,101243.56
2022-11-05T17:29:19.395Z,101239.16
2022-11-05T17:32:06.334Z,101226.81
2022-11-05T17:34:53.327Z,101233.06
2022-11-05T17:37:40.299Z,101232.13
2022-11-05T17:40:30.279Z,101231.25
2022-11-05T17:43:17.222Z,101233.03
2022-11-05T17:46:12.197Z,101226.88
2022-11-05T17:48:59.245Z,101218.34
2022-11-05T17:51:46.269Z,101228.75
2022-11-05T17:54:33.312Z,101223.56
2022-11-05T17:57:20.197Z,101222.59
2022-11-05T18:00:07.594Z,101220.88
2022-11-05T18:02:57.717Z,101227.03
2022-11-05T18:05:45.266Z,101218.28
2022-11-05T18:08:32.217Z,101214.69
2022-11-05T18:11:19.313Z,101207.69
2022-11-05T18:14:06.598Z,101206.97
2022-11-05T18:16:53.983Z,101219.22
2022-11-05T18:19:41.194Z,101216.56
2022-11-05T18:22:28.123Z,101208.66
2022-11-05T18:25:15.581Z,101214.03
2022-11-05T18:28:03.129Z,101209.63
2022-11-05T18:30:50.130Z,101205.25
2022-11-05T18:33:37.381Z,101201.78
2022-11-05T18:36:24.537Z,101194.00
2022-11-05T18:39:11.934Z,101193.94
2022-11-05T18:41:59.086Z,101206.28
2022-11-05T18:44:45.965Z,101200.06
2022-11-05T18:47:33.504Z,101186.81
2022-11-05T18:50:20.910Z,101148.00
2022-11-05T18:53:08.137Z,101174.50
2022-11-05T18:55:55.071Z,101190.34
2022-11-05T18:58:41.878Z,101182.38
2022-11-05T19:01:35.813Z,101177.09
2022-11-05T19:04:23.091Z,101181.50
2022-11-05T19:07:10.054Z,101168.47
2022-11-05T19:09:58.747Z,101174.59
2022-11-05T19:12:45.758Z,101177.25
2022-11-05T19:15:32.695Z,101173.72
2022-11-05T19:18:19.854Z,101164.00
2022-11-05T19:21:06.756Z,101150.94
2022-11-05T19:23:53.933Z,101144.88
2022-11-05T19:26:44.247Z,101158.66
2022-11-05T19:29:31.221Z,101134.59
2022-11-05T19:32:18.247Z,101159.56
2022-11-05T19:35:05.140Z,101152.47
2022-11-05T19:37:52.156Z,101153.41
2022-11-05T19:40:40.454Z,101155.19
2022-11-05T19:43:27.567Z,101156.06
2022-11-05T19:46:14.355Z,101150.75
2022-11-05T19:49:02.033Z,101129.81
2022-11-05T19:51:50.931Z,101149.88
2022-11-05T19:54:37.893Z,101143.72
2022-11-05T19:57:24.881Z,101148.16
2022-11-05T20:00:11.873Z,101144.66
2022-11-05T20:02:58.795Z,101145.56
2022-11-05T20:05:46.147Z,101146.47
2022-11-05T20:08:32.993Z,101146.47
2022-11-05T20:11:20.015Z,101141.22
2022-11-05T20:14:06.871Z,101103.03
2022-11-05T20:16:55.716Z,101125.38
2022-11-05T20:19:43.309Z,101124.50
2022-11-05T20:22:30.195Z,101122.81
2022-11-05T20:25:17.139Z,101125.50
2022-11-05T20:28:04.231Z,101119.34
2022-11-05T20:30:51.566Z,101111.50
2022-11-05T20:33:38.593Z,101110.72
2022-11-05T20:36:28.462Z,101111.56
2022-11-05T20:39:17.697Z,101075.97
2022-11-05T20:42:04.620Z,101090.81
2022-11-05T20:44:51.553Z,101110.75
2022-11-05T20:47:38.591Z,101102.88
2022-11-05T20:50:26.142Z,101091.47
2022-11-05T20:53:13.096Z,101091.53
2022-11-05T20:56:07.799Z,101094.22
2022-11-05T20:58:56.794Z,101086.34
2022-11-05T21:01:47.024Z,101084.66
2022-11-05T21:04:34.036Z,101087.44
2022-11-05T21:07:20.919Z,101100.78
2022-11-05T21:10:07.690Z,101091.13
2022-11-05T21:12:54.770Z,101090.31
2022-11-05T21:15:41.725Z,101091.31
2022-11-05T21:18:28.659Z,101090.47
2022-11-05T21:21:15.974Z,101083.53
2022-11-05T21:24:02.942Z,101076.50
2022-11-05T21:26:49.786Z,101075.75
2022-11-05T21:29:37.345Z,101081.09
2022-11-05T21:32:24.282Z,101076.78
2022-11-05T21:35:11.269Z,101070.66
2022-11-05T21:37:58.058Z,101068.94
2022-11-05T21:40:45.159Z,101063.81
2022-11-05T21:43:33.242Z,101058.47
2022-11-05T21:46:21.766Z,101040.28
2022-11-05T21:49:08.711Z,101035.66
2022-11-05T21:51:54.182Z,101019.25
2022-11-05T21:54:39.304Z,101036.69
2022-11-05T21:57:31.835Z,100978.78
2022-11-05T22:00:00.724Z,100995.34
2022-11-05T22:02:31.228Z,101025.47
2022-11-05T22:04:59.967Z,101016.97
2022-11-05T22:07:30.258Z,101020.28
2022-11-05T22:09:57.893Z,101014.97
2022-11-05T22:12:25.022Z,101011.47
2022-11-05T22:14:52.921Z,101006.22
2022-11-05T22:17:20.690Z,101008.88
2022-11-05T22:20:07.749Z,101006.22
2022-11-05T22:22:54.939Z,101005.38
2022-11-05T22:25:42.099Z,101013.25
2022-11-05T22:28:29.058Z,100995.06
2022-11-05T22:31:15.895Z,101008.03
2022-11-05T22:34:03.131Z,101011.50
2022-11-05T22:36:49.947Z,101004.56
2022-11-05T22:39:37.374Z,101004.56
2022-11-05T22:42:24.545Z,100984.75
2022-11-05T22:45:11.456Z,100995.06
2022-11-05T22:48:06.405Z,100962.13
2022-11-05T22:50:53.806Z,100988.09
2022-11-05T22:53:40.663Z,100980.19
2022-11-05T22:56:30.266Z,100976.78
2022-11-05T22:59:18.330Z,100968.94
2022-11-05T23:02:09.704Z,100969.81
2022-11-05T23:04:57.536Z,100964.56
2022-11-05T23:07:43.267Z,100959.34
2022-11-05T23:10:28.674Z,100964.72
2022-11-05T23:13:15.853Z,100956.91
2022-11-05T23:16:01.500Z,100948.25
2022-11-05T23:18:46.862Z,100949.25
2022-11-05T23:21:32.270Z,100945.72
2022-11-05T23:24:25.302Z,100942.28
2022-11-05T23:27:12.164Z,100943.19
2022-11-05T23:29:59.285Z,100925.94
2022-11-05T23:32:47.865Z,100932.78
2022-11-05T23:35:35.502Z,100927.53
2022-11-05T23:38:20.934Z,100925.00
2022-11-05T23:41:06.566Z,100911.00
2022-11-05T23:43:51.930Z,100921.56
2022-11-05T23:46:48.449Z,100922.50
2022-11-05T23:49:35.406Z,100912.06
2022-11-05T23:52:22.461Z,100906.81
2022-11-05T23:55:09.291Z,100909.50
2022-11-05T23:57:56.175Z,100903.41
